createdAt,value
2023-02-06T00:00:49.280Z,94.90
2023-02-06T00:03:16.985Z,95.05
2023-02-06T00:05:43.740Z,95.30
2023-02-06T00:08:10.319Z,95.44
2023-02-06T00:10:36.922Z,95.13
2023-02-06T00:13:03.554Z,95.50
2023-02-06T00:15:30.160Z,94.90
2023-02-06T00:17:56.644Z,94.89
2023-02-06T00:20:23.138Z,94.96
2023-02-06T00:22:49.681Z,95.25
2023-02-06T00:25:16.262Z,94.97
2023-02-06T00:27:42.888Z,94.63
2023-02-06T00:30:09.775Z,94.63
2023-02-06T00:32:36.447Z,94.30
2023-02-06T00:35:03.022Z,93.40
2023-02-06T00:37:29.531Z,93.87
2023-02-06T00:39:56.044Z,93.85
2023-02-06T00:42:22.545Z,94.62
2023-02-06T00:44:49.026Z,94.31
2023-02-06T00:47:15.563Z,94.15
2023-02-06T00:49:42.044Z,93.98
2023-02-06T00:52:08.749Z,93.74
2023-02-06T00:54:35.316Z,94.03
2023-02-06T00:57:01.834Z,93.74
2023-02-06T00:59:28.378Z,93.63
2023-02-06T01:01:57.771Z,93.68
2023-02-06T01:04:24.410Z,94.42
2023-02-06T01:06:51.375Z,93.74
2023-02-06T01:09:17.929Z,93.39
2023-02-06T01:11:44.460Z,93.54
2023-02-06T01:14:10.983Z,93.32
2023-02-06T01:16:37.601Z,93.08
2023-02-06T01:19:04.131Z,92.98
2023-02-06T01:21:31.373Z,92.63
2023-02-06T01:23:58.265Z,93.08
2023-02-06T01:26:26.936Z,92.77
2023-02-06T01:28:54.222Z,93.19
2023-02-06T01:31:27.132Z,93.01
2023-02-06T01:33:55.454Z,93.04
2023-02-06T01:36:23.146Z,93.43
2023-02-06T01:38:50.748Z,93.15
2023-02-06T01:41:19.270Z,92.64
2023-02-06T01:44:06.125Z,94.95
2023-02-06T01:46:32.827Z,95.02
2023-02-06T01:49:01.151Z,94.48
2023-02-06T01:51:29.746Z,95.11
2023-02-06T01:54:02.208Z,94.92
2023-02-06T01:56:39.259Z,94.75
2023-02-06T01:59:05.854Z,94.52
2023-02-06T02:01:33.562Z,94.28
2023-02-06T02:04:08.400Z,94.40
2023-02-06T02:06:35.530Z,94.55
2023-02-06T02:09:03.912Z,94.08
2023-02-06T02:11:34.914Z,93.99
2023-02-06T02:14:03.174Z,93.90
2023-02-06T02:16:51.396Z,94.36
2023-02-06T02:19:42.806Z,94.86
2023-02-06T02:22:30.784Z,94.38
2023-02-06T02:25:36.812Z,94.70
2023-02-06T02:28:12.664Z,94.86
2023-02-06T02:31:08.616Z,95.73
2023-02-06T02:34:01.244Z,95.13
2023-02-06T02:36:49.826Z,95.26
2023-02-06T02:39:41.194Z,95.68
2023-02-06T02:42:32.393Z,94.85
2023-02-06T02:45:43.641Z,95.40
2023-02-06T02:48:21.764Z,95.97
2023-02-06T02:50:48.957Z,96.19
2023-02-06T02:53:15.790Z,96.05
2023-02-06T02:55:42.352Z,96.45
2023-02-06T02:58:18.930Z,96.16
2023-02-06T03:00:57.746Z,96.44
2023-02-06T03:03:28.774Z,96.25
2023-02-06T03:06:13.301Z,96.31
2023-02-06T03:08:58.402Z,96.55
2023-02-06T03:11:25.693Z,96.41
2023-02-06T03:14:02.601Z,97.06
2023-02-06T03:16:45.661Z,96.69
2023-02-06T03:19:18.963Z,97.12
2023-02-06T03:21:47.461Z,97.24
2023-02-06T03:24:19.495Z,97.20
2023-02-06T03:26:50.684Z,97.34
2023-02-06T03:29:18.825Z,96.71
2023-02-06T03:32:03.133Z,97.58
2023-02-06T03:34:48.913Z,97.33
2023-02-06T03:37:15.558Z,97.07
2023-02-06T03:39:42.862Z,97.16
2023-02-06T03:42:13.305Z,97.11
2023-02-06T03:44:44.662Z,97.14
2023-02-06T03:47:12.240Z,96.90
2023-02-06T03:49:41.314Z,97.00
2023-02-06T03:52:12.424Z,97.01
2023-02-06T03:54:45.080Z,97.01
2023-02-06T03:57:14.107Z,96.92
2023-02-06T03:59:40.701Z,96.40
2023-02-06T04:02:08.006Z,96.75
2023-02-06T04:04:38.112Z,96.66
2023-02-06T04:07:12.827Z,96.84
2023-02-06T04:09:39.985Z,96.03
2023-02-06T04:12:06.950Z,96.14
2023-02-06T04:14:33.699Z,95.89
2023-02-06T04:17:00.172Z,96.01
2023-02-06T04:19:26.671Z,95.66
2023-02-06T04:21:53.237Z,95.70
2023-02-06T04:24:19.847Z,95.23
2023-02-06T04:26:46.365Z,95.32
2023-02-06T04:29:12.934Z,96.29
2023-02-06T04:31:40.349Z,95.59
2023-02-06T04:34:07.035Z,95.09
2023-02-06T04:36:33.765Z,95.10
2023-02-06T04:39:00.752Z,95.29
2023-02-06T04:41:27.308Z,95.46
2023-02-06T04:43:53.868Z,95.97
2023-02-06T04:46:20.511Z,96.37
2023-02-06T04:48:47.761Z,96.12
2023-02-06T04:51:14.493Z,96.41
2023-02-06T04:53:41.013Z,96.40
2023-02-06T04:56:10.801Z,96.18
2023-02-06T04:58:38.482Z,96.51
2023-02-06T05:01:05.837Z,96.09
2023-02-06T05:03:32.635Z,96.06
2023-02-06T05:06:00.381Z,96.50
2023-02-06T05:08:27.194Z,96.27
2023-02-06T05:10:53.797Z,95.99
2023-02-06T05:13:20.470Z,96.15
2023-02-06T05:15:47.089Z,97.09
2023-02-06T05:18:15.076Z,97.27
2023-02-06T05:20:42.540Z,97.41
2023-02-06T05:23:09.555Z,97.24
2023-02-06T05:25:37.527Z,97.08
2023-02-06T05:28:06.621Z,97.72
2023-02-06T05:30:34.490Z,97.62
2023-02-06T05:33:01.161Z,97.71
2023-02-06T05:35:27.973Z,97.81
2023-02-06T05:37:54.624Z,97.76
2023-02-06T05:40:21.259Z,97.76
2023-02-06T05:42:47.810Z,97.36
2023-02-06T05:45:14.387Z,97.33
2023-02-06T05:47:41.022Z,97.39
2023-02-06T05:50:07.824Z,97.87
2023-02-06T05:52:34.317Z,97.39
2023-02-06T05:55:00.838Z,97.61
2023-02-06T05:57:27.335Z,97.46
2023-02-06T05:59:53.840Z,97.45
2023-02-06T06:02:20.608Z,97.20
2023-02-06T06:04:47.183Z,97.74
2023-02-06T06:07:13.859Z,97.74
2023-02-06T06:09:41.229Z,97.74
2023-02-06T06:12:07.799Z,97.81
2023-02-06T06:14:34.298Z,97.59
2023-02-06T06:17:01.171Z,97.39
2023-02-06T06:19:27.654Z,97.08
2023-02-06T06:21:54.641Z,96.89
2023-02-06T06:24:22.110Z,96.70
2023-02-06T06:26:48.614Z,96.70
2023-02-06T06:29:15.212Z,96.28
2023-02-06T06:31:41.773Z,96.43
2023-02-06T06:34:08.322Z,96.70
2023-02-06T06:36:34.957Z,97.11
2023-02-06T06:39:01.670Z,97.22
2023-02-06T06:41:28.214Z,97.29
2023-02-06T06:43:56.627Z,97.14
2023-02-06T06:46:23.134Z,97.24
2023-02-06T06:48:49.593Z,97.35
2023-02-06T06:51:16.324Z,97.97
2023-02-06T06:53:42.951Z,98.03
2023-02-06T06:56:13.412Z,98.06
2023-02-06T06:58:40.825Z,99.17
2023-02-06T07:01:08.490Z,98.99
2023-02-06T07:03:35.508Z,98.83
2023-02-06T07:06:02.316Z,99.72
2023-02-06T07:08:31.757Z,99.33
2023-02-06T07:10:58.607Z,99.45
2023-02-06T07:13:25.135Z,99.55
2023-02-06T07:15:51.798Z,99.83
2023-02-06T07:18:18.391Z,99.43
2023-02-06T07:20:44.910Z,99.34
2023-02-06T07:23:11.386Z,99.45
2023-02-06T07:25:38.145Z,99.71
2023-02-06T07:28:05.047Z,99.53
2023-02-06T07:30:31.584Z,100.00
2023-02-06T07:32:58.119Z,100.00
2023-02-06T07:35:24.645Z,100.00
2023-02-06T07:37:53.741Z,100.00
2023-02-06T07:40:20.357Z,100.00
2023-02-06T07:42:46.879Z,100.00
2023-02-06T07:45:21.279Z,100.00
2023-02-06T07:47:47.819Z,100.00
2023-02-06T07:50:14.307Z,100.00
2023-02-06T07:52:40.781Z,100.00
2023-02-06T07:55:07.447Z,100.00
2023-02-06T07:57:33.933Z,100.00
2023-02-06T08:00:00.486Z,100.00
2023-02-06T08:02:27.007Z,100.00
2023-02-06T08:04:53.666Z,100.00
2023-02-06T08:07:20.223Z,100.00
2023-02-06T08:09:46.820Z,100.00
2023-02-06T08:12:13.469Z,100.00
2023-02-06T08:14:40.060Z,100.00
2023-02-06T08:17:07.638Z,100.00
2023-02-06T08:19:34.220Z,100.00
2023-02-06T08:22:00.747Z,100.00
2023-02-06T08:24:27.383Z,100.00
2023-02-06T08:26:53.866Z,100.00
2023-02-06T08:29:20.689Z,100.00
2023-02-06T08:31:47.239Z,100.00
2023-02-06T08:34:15.078Z,100.00
2023-02-06T08:36:43.536Z,100.00
2023-02-06T08:39:13.361Z,100.00
2023-02-06T08:41:41.272Z,100.00
2023-02-06T08:44:14.347Z,100.00
2023-02-06T08:46:41.228Z,100.00
2023-02-06T08:49:12.318Z,100.00
2023-02-06T08:51:38.735Z,100.00
2023-02-06T08:54:08.053Z,100.00
2023-02-06T08:56:36.310Z,100.00
2023-02-06T08:59:03.413Z,100.00
2023-02-06T09:01:32.134Z,100.00
2023-02-06T09:04:02.703Z,100.00
2023-02-06T09:06:30.966Z,100.00
2023-02-06T09:08:57.798Z,100.00
2023-02-06T09:11:25.708Z,100.00
2023-02-06T09:13:58.232Z,100.00
2023-02-06T09:16:25.673Z,100.00
2023-02-06T09:18:54.176Z,100.00
2023-02-06T09:21:25.545Z,100.00
2023-02-06T09:23:55.013Z,100.00
2023-02-06T09:26:24.784Z,100.00
2023-02-06T09:28:57.086Z,100.00
2023-02-06T09:31:24.988Z,100.00
2023-02-06T09:33:51.529Z,100.00
2023-02-06T09:36:20.656Z,100.00
2023-02-06T09:38:53.487Z,100.00
2023-02-06T09:41:34.917Z,100.00
2023-02-06T09:44:06.657Z,100.00
2023-02-06T09:46:35.470Z,100.00
2023-02-06T09:49:09.113Z,100.00
2023-02-06T09:52:00.007Z,100.00
2023-02-06T09:54:50.817Z,100.00
2023-02-06T09:57:37.234Z,100.00
2023-02-06T10:00:22.562Z,100.00
2023-02-06T10:03:07.746Z,100.00
2023-02-06T10:05:46.746Z,100.00
2023-02-06T10:08:27.683Z,100.00
2023-02-06T10:10:56.388Z,100.00
2023-02-06T10:13:25.976Z,100.00
2023-02-06T10:15:57.409Z,100.00
2023-02-06T10:18:32.333Z,100.00
2023-02-06T10:21:29.515Z,100.00
2023-02-06T10:24:05.405Z,100.00
2023-02-06T10:26:37.241Z,100.00
2023-02-06T10:29:04.724Z,100.00
2023-02-06T10:31:50.526Z,100.00
2023-02-06T10:34:43.913Z,100.00
2023-02-06T10:37:17.142Z,100.00
2023-02-06T10:40:02.387Z,100.00
2023-02-06T10:42:57.305Z,100.00
2023-02-06T10:45:55.466Z,100.00
2023-02-06T10:48:31.640Z,100.00
2023-02-06T10:51:24.738Z,100.00
2023-02-06T10:53:58.580Z,100.00
2023-02-06T10:56:29.898Z,100.00
2023-02-06T10:59:33.934Z,100.00
2023-02-06T11:02:09.530Z,100.00
2023-02-06T11:04:41.328Z,100.00
2023-02-06T11:07:25.012Z,100.00
2023-02-06T11:09:53.006Z,100.00
2023-02-06T11:12:22.465Z,100.00
2023-02-06T11:14:50.486Z,100.00
2023-02-06T11:17:20.353Z,100.00
2023-02-06T11:19:49.570Z,100.00
2023-02-06T11:22:27.355Z,100.00
2023-02-06T11:24:59.801Z,100.00
2023-02-06T11:27:27.426Z,100.00
2023-02-06T11:29:54.184Z,100.00
2023-02-06T11:32:35.988Z,100.00
2023-02-06T11:35:20.889Z,100.00
2023-02-06T11:37:52.477Z,100.00
2023-02-06T11:40:18.972Z,100.00
2023-02-06T11:43:08.000Z,100.00
2023-02-06T11:45:35.142Z,100.00
2023-02-06T11:48:02.089Z,100.00
2023-02-06T11:50:28.597Z,100.00
2023-02-06T11:53:07.857Z,100.00
2023-02-06T11:55:35.945Z,100.00
2023-02-06T11:58:04.841Z,100.00
2023-02-06T12:00:32.244Z,100.00
2023-02-06T12:02:58.752Z,100.00
2023-02-06T12:05:33.177Z,100.00
2023-02-06T12:08:04.551Z,100.00
2023-02-06T12:10:35.772Z,100.00
2023-02-06T12:13:22.554Z,100.00
2023-02-06T12:15:57.606Z,99.63
2023-02-06T12:18:28.887Z,99.59
2023-02-06T12:21:03.420Z,99.87
2023-02-06T12:24:14.601Z,98.93
2023-02-06T12:26:42.406Z,97.90
2023-02-06T12:29:19.153Z,97.15
2023-02-06T12:31:57.462Z,97.56
2023-02-06T12:34:44.750Z,98.00
2023-02-06T12:37:15.553Z,97.29
2023-02-06T12:39:43.448Z,95.69
2023-02-06T12:42:43.510Z,96.09
2023-02-06T12:45:22.265Z,95.73
2023-02-06T12:48:35.675Z,95.26
2023-02-06T12:51:35.195Z,95.13
2023-02-06T12:54:17.499Z,94.17
2023-02-06T12:56:48.663Z,93.31
2023-02-06T12:59:34.541Z,93.52
2023-02-06T13:02:22.274Z,93.06
2023-02-06T13:04:49.749Z,93.64
2023-02-06T13:07:19.819Z,93.29
2023-02-06T13:09:48.684Z,93.24
2023-02-06T13:12:21.784Z,93.22
2023-02-06T13:14:51.697Z,93.66
2023-02-06T13:17:22.009Z,92.54
2023-02-06T13:19:48.480Z,90.96
2023-02-06T13:22:31.237Z,91.39
2023-02-06T13:24:58.373Z,91.23
2023-02-06T13:27:37.572Z,89.84
2023-02-06T13:30:29.899Z,90.58
2023-02-06T13:33:16.433Z,91.25
2023-02-06T13:36:09.922Z,90.01
2023-02-06T13:38:42.277Z,87.51
2023-02-06T13:41:14.899Z,87.49
2023-02-06T13:43:47.914Z,87.65
2023-02-06T13:46:24.550Z,87.21
2023-02-06T13:49:12.390Z,87.72
2023-02-06T13:51:41.839Z,87.63
2023-02-06T13:54:40.499Z,87.81
2023-02-06T13:57:20.649Z,88.80
2023-02-06T13:59:53.002Z,86.19
2023-02-06T14:02:31.154Z,86.59
2023-02-06T14:04:58.675Z,86.33
2023-02-06T14:07:27.804Z,85.56
2023-02-06T14:10:21.871Z,85.29
2023-02-06T14:12:58.771Z,84.58
2023-02-06T14:15:43.794Z,84.43
2023-02-06T14:18:35.545Z,84.66
2023-02-06T14:21:28.226Z,85.05
2023-02-06T14:24:18.836Z,84.95
2023-02-06T14:27:01.032Z,84.95
2023-02-06T14:29:30.177Z,85.21
2023-02-06T14:32:26.536Z,84.59
2023-02-06T14:35:02.098Z,84.81
2023-02-06T14:37:45.165Z,85.39
2023-02-06T14:40:26.777Z,85.79
2023-02-06T14:42:57.255Z,85.01
2023-02-06T14:45:38.494Z,85.69
2023-02-06T14:48:30.193Z,85.82
2023-02-06T14:50:57.994Z,85.32
2023-02-06T14:53:39.562Z,84.54
2023-02-06T14:56:18.710Z,84.74
2023-02-06T14:58:48.646Z,85.09
2023-02-06T15:01:18.137Z,85.16
2023-02-06T15:03:46.264Z,84.21
2023-02-06T15:06:31.401Z,84.69
2023-02-06T15:08:58.260Z,84.53
2023-02-06T15:11:32.389Z,85.34
2023-02-06T15:14:05.500Z,85.17
2023-02-06T15:16:46.141Z,85.36
2023-02-06T15:19:21.493Z,85.32
2023-02-06T15:21:49.749Z,85.15
2023-02-06T15:24:27.550Z,85.42
2023-02-06T15:27:08.380Z,85.49
2023-02-06T15:29:35.016Z,85.57
2023-02-06T15:32:08.131Z,85.65
2023-02-06T15:34:34.874Z,84.88
2023-02-06T15:37:19.574Z,85.09
2023-02-06T15:39:46.842Z,85.23
2023-02-06T15:42:13.441Z,85.13
2023-02-06T15:44:40.285Z,85.55
2023-02-06T15:47:12.866Z,85.00
2023-02-06T15:49:43.344Z,84.23
2023-02-06T15:52:12.598Z,83.83
2023-02-06T15:54:44.989Z,83.79
2023-02-06T15:57:17.252Z,84.14
2023-02-06T15:59:44.204Z,83.84
2023-02-06T16:02:39.670Z,84.38
2023-02-06T16:05:09.039Z,84.34
2023-02-06T16:07:36.500Z,83.82
2023-02-06T16:10:20.098Z,84.77
2023-02-06T16:12:46.729Z,85.17
2023-02-06T16:15:28.235Z,86.31
2023-02-06T16:17:55.020Z,86.36
2023-02-06T16:20:39.782Z,87.05
2023-02-06T16:23:30.122Z,87.24
2023-02-06T16:26:07.336Z,87.71
2023-02-06T16:28:45.451Z,88.17
2023-02-06T16:31:14.928Z,87.95
2023-02-06T16:33:44.220Z,88.32
2023-02-06T16:36:15.510Z,88.69
2023-02-06T16:38:48.275Z,88.26
2023-02-06T16:41:34.283Z,88.87
2023-02-06T16:44:02.161Z,88.95
2023-02-06T16:46:29.698Z,88.97
2023-02-06T16:48:58.124Z,89.19
2023-02-06T16:51:27.936Z,89.26
2023-02-06T16:53:54.739Z,89.29
2023-02-06T16:56:21.843Z,89.03
2023-02-06T16:58:49.083Z,89.25
2023-02-06T17:01:24.833Z,89.34
2023-02-06T17:03:52.836Z,89.12
2023-02-06T17:06:27.195Z,89.01
2023-02-06T17:09:01.905Z,88.62
2023-02-06T17:11:28.889Z,88.77
2023-02-06T17:13:55.639Z,88.87
2023-02-06T17:16:24.274Z,88.81
2023-02-06T17:18:51.257Z,88.92
2023-02-06T17:21:20.171Z,89.23
2023-02-06T17:23:47.800Z,89.13
2023-02-06T17:26:17.509Z,89.22
2023-02-06T17:28:44.983Z,89.06
2023-02-06T17:31:11.840Z,88.91
2023-02-06T17:33:38.581Z,88.88
2023-02-06T17:36:08.005Z,89.03
2023-02-06T17:38:34.523Z,89.23
2023-02-06T17:41:01.037Z,89.17
2023-02-06T17:43:29.485Z,89.20
2023-02-06T17:45:56.041Z,89.41
2023-02-06T17:48:22.555Z,89.51
2023-02-06T17:50:49.018Z,89.23
2023-02-06T17:53:15.509Z,89.51
2023-02-06T17:55:42.134Z,89.07
2023-02-06T17:58:09.643Z,89.25
2023-02-06T18:00:36.753Z,89.24
2023-02-06T18:03:05.108Z,89.37
2023-02-06T18:05:31.972Z,89.39
2023-02-06T18:07:58.534Z,89.55
2023-02-06T18:10:26.345Z,89.09
2023-02-06T18:12:52.924Z,89.15
2023-02-06T18:15:20.490Z,89.04
2023-02-06T18:17:46.973Z,89.53
2023-02-06T18:20:14.659Z,89.73
2023-02-06T18:22:41.512Z,89.48
2023-02-06T18:25:13.978Z,89.78
2023-02-06T18:27:42.748Z,89.62
2023-02-06T18:30:10.163Z,89.74
2023-02-06T18:32:38.248Z,89.73
2023-02-06T18:35:05.929Z,89.89
2023-02-06T18:37:32.560Z,89.79
2023-02-06T18:39:59.053Z,89.79
2023-02-06T18:42:44.153Z,89.59
2023-02-06T18:45:10.704Z,89.52
2023-02-06T18:47:38.968Z,89.20
2023-02-06T18:50:05.850Z,89.13
2023-02-06T18:52:32.451Z,89.23
2023-02-06T18:54:59.048Z,89.81
2023-02-06T18:57:25.554Z,89.31
2023-02-06T18:59:52.041Z,89.13
2023-02-06T19:02:18.764Z,89.77
2023-02-06T19:04:45.356Z,89.81
2023-02-06T19:07:11.932Z,89.57
2023-02-06T19:09:39.089Z,89.30
2023-02-06T19:12:05.849Z,89.58
2023-02-06T19:14:32.340Z,89.64
2023-02-06T19:16:59.058Z,89.27
2023-02-06T19:19:25.925Z,88.87
2023-02-06T19:21:52.521Z,89.51
2023-02-06T19:24:19.234Z,89.39
2023-02-06T19:26:46.157Z,89.49
2023-02-06T19:29:15.441Z,89.48
2023-02-06T19:31:42.719Z,89.14
2023-02-06T19:34:09.352Z,89.53
2023-02-06T19:36:36.220Z,90.01
2023-02-06T19:39:06.517Z,89.96
2023-02-06T19:41:33.959Z,90.36
2023-02-06T19:44:03.825Z,90.00
2023-02-06T19:46:30.377Z,89.08
2023-02-06T19:48:57.230Z,89.26
2023-02-06T19:51:27.010Z,89.81
2023-02-06T19:53:55.238Z,89.64
2023-02-06T19:56:25.222Z,89.11
2023-02-06T19:58:56.280Z,89.14
2023-02-06T20:01:23.656Z,89.11
2023-02-06T20:03:50.648Z,88.72
2023-02-06T20:06:18.488Z,88.83
2023-02-06T20:08:46.517Z,88.87
2023-02-06T20:11:19.150Z,89.22
2023-02-06T20:13:47.569Z,88.81
2023-02-06T20:16:26.948Z,89.50
2023-02-06T20:18:54.768Z,89.43
2023-02-06T20:21:34.446Z,90.07
2023-02-06T20:24:03.598Z,89.45
2023-02-06T20:26:33.755Z,89.93
2023-02-06T20:29:00.779Z,89.56
2023-02-06T20:31:28.853Z,89.33
2023-02-06T20:33:56.179Z,89.39
2023-02-06T20:36:25.303Z,88.81
2023-02-06T20:38:55.213Z,89.27
2023-02-06T20:41:23.915Z,89.30
2023-02-06T20:43:50.524Z,89.54
2023-02-06T20:46:17.475Z,89.01
2023-02-06T20:48:46.111Z,89.23
2023-02-06T20:51:13.988Z,89.43
2023-02-06T20:53:40.797Z,88.87
2023-02-06T20:56:12.593Z,88.61
2023-02-06T20:58:39.173Z,88.72
2023-02-06T21:01:17.478Z,89.11
2023-02-06T21:03:45.580Z,89.15
2023-02-06T21:06:13.010Z,89.01
2023-02-06T21:08:39.625Z,89.32
2023-02-06T21:11:06.590Z,88.88
2023-02-06T21:13:33.889Z,88.46
2023-02-06T21:16:01.061Z,88.54
2023-02-06T21:18:30.554Z,88.72
2023-02-06T21:21:06.575Z,88.56
2023-02-06T21:23:33.412Z,88.44
2023-02-06T21:26:00.195Z,88.63
2023-02-06T21:28:26.766Z,88.36
2023-02-06T21:31:00.216Z,88.81
2023-02-06T21:33:27.169Z,88.57
2023-02-06T21:35:54.233Z,88.99
2023-02-06T21:38:21.482Z,88.60
2023-02-06T21:40:49.067Z,88.06
2023-02-06T21:43:15.974Z,87.68
2023-02-06T21:45:42.781Z,87.95
2023-02-06T21:48:09.601Z,88.31
2023-02-06T21:50:40.302Z,89.21
2023-02-06T21:53:08.438Z,89.24
2023-02-06T21:55:35.292Z,88.88
2023-02-06T21:58:02.022Z,88.47
2023-02-06T22:00:28.791Z,88.46
2023-02-06T22:02:55.334Z,88.61
2023-02-06T22:05:22.049Z,88.87
2023-02-06T22:07:48.591Z,89.72
2023-02-06T22:10:15.190Z,89.06
2023-02-06T22:12:41.712Z,88.91
2023-02-06T22:15:09.064Z,89.17
2023-02-06T22:17:35.866Z,89.35
2023-02-06T22:20:02.476Z,89.22
2023-02-06T22:22:28.998Z,89.73
2023-02-06T22:24:55.528Z,89.15
2023-02-06T22:27:22.906Z,89.55
2023-02-06T22:29:49.496Z,89.66
2023-02-06T22:32:16.076Z,89.66
2023-02-06T22:34:42.562Z,89.94
2023-02-06T22:37:09.143Z,89.69
2023-02-06T22:39:35.755Z,90.40
2023-02-06T22:42:02.298Z,90.17
2023-02-06T22:44:28.869Z,89.98
2023-02-06T22:46:55.437Z,89.52
2023-02-06T22:49:24.215Z,89.48
2023-02-06T22:51:50.797Z,89.60
2023-02-06T22:54:17.397Z,89.18
2023-02-06T22:56:44.707Z,88.81
2023-02-06T22:59:20.181Z,88.72
2023-02-06T23:01:58.181Z,88.60
2023-02-06T23:04:27.397Z,89.16
2023-02-06T23:06:54.557Z,89.02
2023-02-06T23:09:26.599Z,89.11
2023-02-06T23:11:54.314Z,89.09
2023-02-06T23:14:20.828Z,88.82
2023-02-06T23:16:47.677Z,88.73
2023-02-06T23:19:15.006Z,88.86
2023-02-06T23:21:43.098Z,88.82
2023-02-06T23:24:10.466Z,88.35
2023-02-06T23:26:37.554Z,88.62
2023-02-06T23:29:06.381Z,88.50
2023-02-06T23:31:33.360Z,88.51
2023-02-06T23:34:00.000Z,88.84
2023-02-06T23:36:27.738Z,88.42
2023-02-06T23:38:54.801Z,88.31
2023-02-06T23:41:27.183Z,88.35
2023-02-06T23:44:02.099Z,88.55
2023-02-06T23:46:30.794Z,88.32
2023-02-06T23:48:57.514Z,88.37
2023-02-06T23:51:24.800Z,88.34
2023-02-06T23:53:51.681Z,88.49
2023-02-06T23:56:24.930Z,88.70
2023-02-06T23:58:52.705Z,88.64
